sensor_id;sensor_type;location;lat;lon;timestamp;P1;durP1;ratioP1;P2;durP2;ratioP2
14191;SDS011;7177;48.572;7.838;2022-08-21T00:01:24;4.87;;;3.50;;
14191;SDS011;7177;48.572;7.838;2022-08-21T00:03:52;6.13;;;3.30;;
14191;SDS011;7177;48.572;7.838;2022-08-21T00:06:18;6.57;;;3.67;;
14191;SDS011;7177;48.572;7.838;2022-08-21T00:08:44;5.10;;;3.10;;
14191;SDS011;7177;48.572;7.838;2022-08-21T00:11:09;4.07;;;3.17;;
14191;SDS011;7177;48.572;7.838;2022-08-21T00:13:35;3.93;;;3.13;;
14191;SDS011;7177;48.572;7.838;2022-08-21T00:16:02;4.40;;;3.10;;
14191;SDS011;7177;48.572;7.838;2022-08-21T00:18:28;4.77;;;3.43;;
14191;SDS011;7177;48.572;7.838;2022-08-21T00:20:54;5.40;;;3.50;;
14191;SDS011;7177;48.572;7.838;2022-08-21T00:23:19;3.90;;;3.20;;
14191;SDS011;7177;48.572;7.838;2022-08-21T00:25:46;4.97;;;3.00;;
14191;SDS011;7177;48.572;7.838;2022-08-21T00:28:12;6.40;;;3.20;;
14191;SDS011;7177;48.572;7.838;2022-08-21T00:30:38;8.00;;;3.50;;
14191;SDS011;7177;48.572;7.838;2022-08-21T00:33:05;5.83;;;3.30;;
14191;SDS011;7177;48.572;7.838;2022-08-21T00:35:34;3.20;;;2.90;;
14191;SDS011;7177;48.572;7.838;2022-08-21T00:38:02;3.93;;;3.50;;
14191;SDS011;7177;48.572;7.838;2022-08-21T00:40:33;5.30;;;3.70;;
14191;SDS011;7177;48.572;7.838;2022-08-21T00:43:05;5.57;;;3.60;;
14191;SDS011;7177;48.572;7.838;2022-08-21T00:45:33;7.77;;;3.57;;
14191;SDS011;7177;48.572;7.838;2022-08-21T00:47:59;3.93;;;3.53;;
14191;SDS011;7177;48.572;7.838;2022-08-21T00:50:25;6.27;;;3.37;;
14191;SDS011;7177;48.572;7.838;2022-08-21T00:52:54;5.73;;;4.00;;
14191;SDS011;7177;48.572;7.838;2022-08-21T00:55:20;3.43;;;3.13;;
14191;SDS011;7177;48.572;7.838;2022-08-21T00:57:48;6.03;;;3.87;;
14191;SDS011;7177;48.572;7.838;2022-08-21T01:00:17;5.27;;;3.63;;
14191;SDS011;7177;48.572;7.838;2022-08-21T01:02:46;5.03;;;3.60;;
14191;SDS011;7177;48.572;7.838;2022-08-21T01:05:12;4.77;;;3.73;;
14191;SDS011;7177;48.572;7.838;2022-08-21T01:07:38;6.77;;;3.47;;
14191;SDS011;7177;48.572;7.838;2022-08-21T01:10:05;6.40;;;3.67;;
14191;SDS011;7177;48.572;7.838;2022-08-21T01:12:31;3.67;;;3.23;;
14191;SDS011;7177;48.572;7.838;2022-08-21T01:14:58;4.43;;;3.43;;
14191;SDS011;7177;48.572;7.838;2022-08-21T01:17:24;6.20;;;4.07;;
14191;SDS011;7177;48.572;7.838;2022-08-21T01:19:50;6.07;;;3.80;;
14191;SDS011;7177;48.572;7.838;2022-08-21T01:22:16;4.90;;;3.90;;
14191;SDS011;7177;48.572;7.838;2022-08-21T01:24:41;5.43;;;4.17;;
14191;SDS011;7177;48.572;7.838;2022-08-21T01:27:07;6.17;;;3.80;;
14191;SDS011;7177;48.572;7.838;2022-08-21T01:29:38;4.97;;;3.80;;
14191;SDS011;7177;48.572;7.838;2022-08-21T01:32:11;4.70;;;3.57;;
14191;SDS011;7177;48.572;7.838;2022-08-21T01:34:39;7.07;;;4.30;;
14191;SDS011;7177;48.572;7.838;2022-08-21T01:37:06;6.57;;;4.33;;
14191;SDS011;7177;48.572;7.838;2022-08-21T01:39:33;8.13;;;4.23;;
14191;SDS011;7177;48.572;7.838;2022-08-21T01:41:59;4.93;;;3.47;;
14191;SDS011;7177;48.572;7.838;2022-08-21T01:44:25;5.50;;;4.00;;
14191;SDS011;7177;48.572;7.838;2022-08-21T01:46:51;5.77;;;4.17;;
14191;SDS011;7177;48.572;7.838;2022-08-21T01:49:17;5.10;;;4.00;;
14191;SDS011;7177;48.572;7.838;2022-08-21T01:51:43;5.23;;;4.20;;
14191;SDS011;7177;48.572;7.838;2022-08-21T01:54:09;6.60;;;3.83;;
14191;SDS011;7177;48.572;7.838;2022-08-21T01:56:38;5.53;;;3.93;;
14191;SDS011;7177;48.572;7.838;2022-08-21T01:59:07;4.13;;;3.60;;
14191;SDS011;7177;48.572;7.838;2022-08-21T02:01:33;5.07;;;3.27;;
14191;SDS011;7177;48.572;7.838;2022-08-21T02:03:59;4.37;;;3.40;;
14191;SDS011;7177;48.572;7.838;2022-08-21T02:06:25;6.60;;;4.00;;
14191;SDS011;7177;48.572;7.838;2022-08-21T02:08:50;7.63;;;4.00;;
14191;SDS011;7177;48.572;7.838;2022-08-21T02:11:16;4.63;;;3.50;;
14191;SDS011;7177;48.572;7.838;2022-08-21T02:13:42;4.17;;;3.27;;
14191;SDS011;7177;48.572;7.838;2022-08-21T02:16:07;3.37;;;3.07;;
14191;SDS011;7177;48.572;7.838;2022-08-21T02:18:34;5.13;;;3.03;;
14191;SDS011;7177;48.572;7.838;2022-08-21T02:21:00;5.30;;;4.07;;
14191;SDS011;7177;48.572;7.838;2022-08-21T02:23:26;6.00;;;3.80;;
14191;SDS011;7177;48.572;7.838;2022-08-21T02:25:52;7.73;;;3.57;;
14191;SDS011;7177;48.572;7.838;2022-08-21T02:28:17;5.33;;;3.77;;
14191;SDS011;7177;48.572;7.838;2022-08-21T02:30:44;6.50;;;4.13;;
14191;SDS011;7177;48.572;7.838;2022-08-21T02:33:11;4.53;;;4.07;;
14191;SDS011;7177;48.572;7.838;2022-08-21T02:35:39;5.23;;;4.17;;
14191;SDS011;7177;48.572;7.838;2022-08-21T02:38:10;4.33;;;3.90;;
14191;SDS011;7177;48.572;7.838;2022-08-21T02:40:39;5.00;;;3.70;;
14191;SDS011;7177;48.572;7.838;2022-08-21T02:43:06;5.87;;;4.07;;
14191;SDS011;7177;48.572;7.838;2022-08-21T02:45:33;3.90;;;3.60;;
14191;SDS011;7177;48.572;7.838;2022-08-21T02:48:04;4.87;;;3.80;;
14191;SDS011;7177;48.572;7.838;2022-08-21T02:50:32;6.00;;;3.70;;
14191;SDS011;7177;48.572;7.838;2022-08-21T02:53:00;4.63;;;3.87;;
14191;SDS011;7177;48.572;7.838;2022-08-21T02:55:27;4.30;;;3.90;;
14191;SDS011;7177;48.572;7.838;2022-08-21T02:57:54;4.37;;;3.60;;
14191;SDS011;7177;48.572;7.838;2022-08-21T03:00:22;7.10;;;4.00;;
14191;SDS011;7177;48.572;7.838;2022-08-21T03:02:48;4.20;;;3.80;;
14191;SDS011;7177;48.572;7.838;2022-08-21T03:05:14;4.70;;;3.63;;
14191;SDS011;7177;48.572;7.838;2022-08-21T03:07:41;5.80;;;4.17;;
14191;SDS011;7177;48.572;7.838;2022-08-21T03:10:08;4.37;;;3.97;;
14191;SDS011;7177;48.572;7.838;2022-08-21T03:12:35;5.33;;;4.30;;
14191;SDS011;7177;48.572;7.838;2022-08-21T03:15:02;5.27;;;4.33;;
14191;SDS011;7177;48.572;7.838;2022-08-21T03:17:29;5.40;;;4.07;;
14191;SDS011;7177;48.572;7.838;2022-08-21T03:19:55;5.37;;;3.63;;
14191;SDS011;7177;48.572;7.838;2022-08-21T03:22:21;5.43;;;3.93;;
14191;SDS011;7177;48.572;7.838;2022-08-21T03:24:46;6.20;;;4.57;;
14191;SDS011;7177;48.572;7.838;2022-08-21T03:27:12;4.63;;;3.67;;
14191;SDS011;7177;48.572;7.838;2022-08-21T03:29:38;4.67;;;4.10;;
14191;SDS011;7177;48.572;7.838;2022-08-21T03:32:04;3.93;;;3.40;;
14191;SDS011;7177;48.572;7.838;2022-08-21T03:34:30;4.63;;;3.77;;
14191;SDS011;7177;48.572;7.838;2022-08-21T03:36:55;4.10;;;3.70;;
14191;SDS011;7177;48.572;7.838;2022-08-21T03:39:21;4.30;;;3.90;;
14191;SDS011;7177;48.572;7.838;2022-08-21T03:41:46;4.20;;;3.90;;
14191;SDS011;7177;48.572;7.838;2022-08-21T03:44:12;3.90;;;3.53;;
14191;SDS011;7177;48.572;7.838;2022-08-21T03:46:38;4.00;;;3.60;;
14191;SDS011;7177;48.572;7.838;2022-08-21T03:49:05;10.43;;;4.60;;
14191;SDS011;7177;48.572;7.838;2022-08-21T03:51:31;6.47;;;4.00;;
14191;SDS011;7177;48.572;7.838;2022-08-21T03:53:58;8.47;;;4.57;;
14191;SDS011;7177;48.572;7.838;2022-08-21T03:56:24;5.53;;;4.57;;
14191;SDS011;7177;48.572;7.838;2022-08-21T03:58:49;4.97;;;4.40;;
14191;SDS011;7177;48.572;7.838;2022-08-21T04:01:15;6.03;;;4.07;;
14191;SDS011;7177;48.572;7.838;2022-08-21T04:03:40;4.33;;;3.93;;
14191;SDS011;7177;48.572;7.838;2022-08-21T04:06:06;6.23;;;4.37;;
14191;SDS011;7177;48.572;7.838;2022-08-21T04:08:32;8.43;;;4.77;;
14191;SDS011;7177;48.572;7.838;2022-08-21T04:10:58;6.13;;;4.70;;
14191;SDS011;7177;48.572;7.838;2022-08-21T04:13:24;9.70;;;4.60;;
14191;SDS011;7177;48.572;7.838;2022-08-21T04:15:53;6.90;;;4.23;;
14191;SDS011;7177;48.572;7.838;2022-08-21T04:18:19;4.77;;;4.37;;
14191;SDS011;7177;48.572;7.838;2022-08-21T04:20:46;6.67;;;4.70;;
14191;SDS011;7177;48.572;7.838;2022-08-21T04:23:14;7.07;;;4.20;;
14191;SDS011;7177;48.572;7.838;2022-08-21T04:25:40;10.33;;;4.73;;
14191;SDS011;7177;48.572;7.838;2022-08-21T04:28:05;6.77;;;4.73;;
14191;SDS011;7177;48.572;7.838;2022-08-21T04:30:31;7.23;;;4.70;;
14191;SDS011;7177;48.572;7.838;2022-08-21T04:32:58;5.07;;;4.43;;
14191;SDS011;7177;48.572;7.838;2022-08-21T04:35:25;6.97;;;4.70;;
14191;SDS011;7177;48.572;7.838;2022-08-21T04:37:51;5.20;;;4.20;;
14191;SDS011;7177;48.572;7.838;2022-08-21T04:40:18;6.03;;;4.80;;
14191;SDS011;7177;48.572;7.838;2022-08-21T04:42:46;6.90;;;4.40;;
14191;SDS011;7177;48.572;7.838;2022-08-21T04:45:21;6.13;;;4.90;;
14191;SDS011;7177;48.572;7.838;2022-08-21T04:47:49;9.27;;;4.70;;
14191;SDS011;7177;48.572;7.838;2022-08-21T04:50:16;5.57;;;4.43;;
14191;SDS011;7177;48.572;7.838;2022-08-21T04:52:42;4.87;;;4.37;;
14191;SDS011;7177;48.572;7.838;2022-08-21T04:55:08;7.63;;;4.37;;
14191;SDS011;7177;48.572;7.838;2022-08-21T04:57:34;8.83;;;5.40;;
14191;SDS011;7177;48.572;7.838;2022-08-21T05:00:00;5.27;;;4.30;;
14191;SDS011;7177;48.572;7.838;2022-08-21T05:02:27;6.60;;;4.20;;
14191;SDS011;7177;48.572;7.838;2022-08-21T05:04:53;4.90;;;3.70;;
14191;SDS011;7177;48.572;7.838;2022-08-21T05:07:21;6.90;;;3.90;;
14191;SDS011;7177;48.572;7.838;2022-08-21T05:09:51;4.50;;;3.53;;
14191;SDS011;7177;48.572;7.838;2022-08-21T05:12:17;4.83;;;3.23;;
14191;SDS011;7177;48.572;7.838;2022-08-21T05:14:42;3.93;;;3.27;;
14191;SDS011;7177;48.572;7.838;2022-08-21T05:17:08;3.50;;;3.17;;
14191;SDS011;7177;48.572;7.838;2022-08-21T05:19:34;5.37;;;3.50;;
14191;SDS011;7177;48.572;7.838;2022-08-21T05:22:00;3.73;;;3.07;;
14191;SDS011;7177;48.572;7.838;2022-08-21T05:24:25;5.77;;;3.50;;
14191;SDS011;7177;48.572;7.838;2022-08-21T05:26:52;3.73;;;2.73;;
14191;SDS011;7177;48.572;7.838;2022-08-21T05:29:17;3.97;;;3.10;;
14191;SDS011;7177;48.572;7.838;2022-08-21T05:31:44;4.43;;;3.00;;
14191;SDS011;7177;48.572;7.838;2022-08-21T05:34:10;4.53;;;3.33;;
14191;SDS011;7177;48.572;7.838;2022-08-21T05:36:36;5.17;;;3.40;;
14191;SDS011;7177;48.572;7.838;2022-08-21T05:39:02;3.90;;;2.90;;
14191;SDS011;7177;48.572;7.838;2022-08-21T05:41:28;6.27;;;2.90;;
14191;SDS011;7177;48.572;7.838;2022-08-21T05:43:53;3.40;;;2.90;;
14191;SDS011;7177;48.572;7.838;2022-08-21T05:46:18;4.63;;;3.20;;
14191;SDS011;7177;48.572;7.838;2022-08-21T05:48:44;5.67;;;3.10;;
14191;SDS011;7177;48.572;7.838;2022-08-21T05:51:15;6.00;;;2.83;;
14191;SDS011;7177;48.572;7.838;2022-08-21T05:53:41;4.80;;;3.37;;
14191;SDS011;7177;48.572;7.838;2022-08-21T05:56:07;3.87;;;3.03;;
14191;SDS011;7177;48.572;7.838;2022-08-21T05:58:34;3.83;;;3.10;;
14191;SDS011;7177;48.572;7.838;2022-08-21T06:01:00;3.87;;;3.03;;
14191;SDS011;7177;48.572;7.838;2022-08-21T06:03:28;3.00;;;2.73;;
14191;SDS011;7177;48.572;7.838;2022-08-21T06:05:56;9.63;;;3.57;;
14191;SDS011;7177;48.572;7.838;2022-08-21T06:08:22;5.13;;;3.33;;
14191;SDS011;7177;48.572;7.838;2022-08-21T06:10:49;4.43;;;2.93;;
14191;SDS011;7177;48.572;7.838;2022-08-21T06:13:17;2.90;;;2.60;;
14191;SDS011;7177;48.572;7.838;2022-08-21T06:15:44;3.20;;;2.63;;
14191;SDS011;7177;48.572;7.838;2022-08-21T06:18:10;3.67;;;2.77;;
14191;SDS011;7177;48.572;7.838;2022-08-21T06:20:36;5.30;;;2.87;;
14191;SDS011;7177;48.572;7.838;2022-08-21T06:23:02;3.97;;;2.67;;
14191;SDS011;7177;48.572;7.838;2022-08-21T06:25:27;3.90;;;2.37;;
14191;SDS011;7177;48.572;7.838;2022-08-21T06:27:59;4.03;;;2.37;;
14191;SDS011;7177;48.572;7.838;2022-08-21T06:30:30;3.20;;;2.90;;
14191;SDS011;7177;48.572;7.838;2022-08-21T06:32:56;6.03;;;2.80;;
14191;SDS011;7177;48.572;7.838;2022-08-21T06:35:22;2.77;;;2.53;;
14191;SDS011;7177;48.572;7.838;2022-08-21T06:37:49;3.80;;;2.90;;
14191;SDS011;7177;48.572;7.838;2022-08-21T06:40:15;3.93;;;2.60;;
14191;SDS011;7177;48.572;7.838;2022-08-21T06:42:40;3.10;;;2.30;;
14191;SDS011;7177;48.572;7.838;2022-08-21T06:45:06;4.87;;;2.70;;
14191;SDS011;7177;48.572;7.838;2022-08-21T06:47:32;6.03;;;2.87;;
14191;SDS011;7177;48.572;7.838;2022-08-21T06:49:57;4.07;;;2.70;;
14191;SDS011;7177;48.572;7.838;2022-08-21T06:52:23;3.77;;;2.47;;
14191;SDS011;7177;48.572;7.838;2022-08-21T06:54:48;5.67;;;2.70;;
14191;SDS011;7177;48.572;7.838;2022-08-21T06:57:14;4.47;;;2.80;;
14191;SDS011;7177;48.572;7.838;2022-08-21T06:59:40;3.00;;;2.43;;
14191;SDS011;7177;48.572;7.838;2022-08-21T07:02:06;5.10;;;3.10;;
14191;SDS011;7177;48.572;7.838;2022-08-21T07:04:32;8.40;;;2.87;;
14191;SDS011;7177;48.572;7.838;2022-08-21T07:06:58;5.23;;;2.80;;
14191;SDS011;7177;48.572;7.838;2022-08-21T07:09:24;5.50;;;2.70;;
14191;SDS011;7177;48.572;7.838;2022-08-21T07:11:50;3.70;;;2.50;;
14191;SDS011;7177;48.572;7.838;2022-08-21T07:14:18;4.87;;;2.50;;
14191;SDS011;7177;48.572;7.838;2022-08-21T07:16:44;5.50;;;2.63;;
14191;SDS011;7177;48.572;7.838;2022-08-21T07:19:09;4.13;;;2.60;;
14191;SDS011;7177;48.572;7.838;2022-08-21T07:21:35;6.53;;;2.53;;
14191;SDS011;7177;48.572;7.838;2022-08-21T07:24:00;3.13;;;2.60;;
14191;SDS011;7177;48.572;7.838;2022-08-21T07:26:26;4.73;;;3.07;;
14191;SDS011;7177;48.572;7.838;2022-08-21T07:28:52;3.93;;;2.60;;
14191;SDS011;7177;48.572;7.838;2022-08-21T07:31:19;3.63;;;2.43;;
14191;SDS011;7177;48.572;7.838;2022-08-21T07:33:46;4.67;;;2.90;;
14191;SDS011;7177;48.572;7.838;2022-08-21T07:36:12;5.40;;;3.10;;
14191;SDS011;7177;48.572;7.838;2022-08-21T07:38:38;3.20;;;2.40;;
14191;SDS011;7177;48.572;7.838;2022-08-21T07:41:06;3.73;;;2.83;;
14191;SDS011;7177;48.572;7.838;2022-08-21T07:43:38;6.17;;;2.83;;
14191;SDS011;7177;48.572;7.838;2022-08-21T07:46:04;6.50;;;2.90;;
14191;SDS011;7177;48.572;7.838;2022-08-21T07:48:29;3.60;;;2.60;;
14191;SDS011;7177;48.572;7.838;2022-08-21T07:50:55;4.97;;;2.80;;
14191;SDS011;7177;48.572;7.838;2022-08-21T07:53:21;3.67;;;2.50;;
14191;SDS011;7177;48.572;7.838;2022-08-21T07:55:46;5.17;;;2.93;;
14191;SDS011;7177;48.572;7.838;2022-08-21T07:58:12;5.70;;;2.77;;
14191;SDS011;7177;48.572;7.838;2022-08-21T08:00:38;3.57;;;2.30;;
14191;SDS011;7177;48.572;7.838;2022-08-21T08:03:05;3.97;;;2.40;;
14191;SDS011;7177;48.572;7.838;2022-08-21T08:05:30;8.20;;;3.00;;
14191;SDS011;7177;48.572;7.838;2022-08-21T08:08:02;5.40;;;2.73;;
14191;SDS011;7177;48.572;7.838;2022-08-21T08:10:28;4.17;;;2.70;;
14191;SDS011;7177;48.572;7.838;2022-08-21T08:12:53;7.83;;;3.43;;
14191;SDS011;7177;48.572;7.838;2022-08-21T08:15:20;4.00;;;2.30;;
14191;SDS011;7177;48.572;7.838;2022-08-21T08:17:48;8.00;;;3.30;;
14191;SDS011;7177;48.572;7.838;2022-08-21T08:20:14;9.90;;;3.23;;
14191;SDS011;7177;48.572;7.838;2022-08-21T08:22:41;6.50;;;2.77;;
14191;SDS011;7177;48.572;7.838;2022-08-21T08:25:08;6.83;;;2.80;;
14191;SDS011;7177;48.572;7.838;2022-08-21T08:27:34;7.00;;;2.87;;
14191;SDS011;7177;48.572;7.838;2022-08-21T08:30:00;5.10;;;3.47;;
14191;SDS011;7177;48.572;7.838;2022-08-21T08:32:26;4.73;;;2.93;;
14191;SDS011;7177;48.572;7.838;2022-08-21T08:34:52;8.77;;;3.30;;
14191;SDS011;7177;48.572;7.838;2022-08-21T08:37:18;7.57;;;2.97;;
14191;SDS011;7177;48.572;7.838;2022-08-21T08:39:45;8.63;;;4.30;;
14191;SDS011;7177;48.572;7.838;2022-08-21T08:42:14;4.67;;;2.67;;
14191;SDS011;7177;48.572;7.838;2022-08-21T08:44:44;5.97;;;3.00;;
14191;SDS011;7177;48.572;7.838;2022-08-21T08:47:11;6.90;;;2.90;;
14191;SDS011;7177;48.572;7.838;2022-08-21T08:52:35;8.50;;;3.00;;
14191;SDS011;7177;48.572;7.838;2022-08-21T08:55:15;7.83;;;3.43;;
14191;SDS011;7177;48.572;7.838;2022-08-21T08:57:45;5.40;;;2.73;;
14191;SDS011;7177;48.572;7.838;2022-08-21T09:00:14;6.33;;;2.70;;
14191;SDS011;7177;48.572;7.838;2022-08-21T09:02:42;6.60;;;3.10;;
14191;SDS011;7177;48.572;7.838;2022-08-21T09:05:20;7.63;;;3.07;;
14191;SDS011;7177;48.572;7.838;2022-08-21T09:10:28;9.23;;;2.97;;
14191;SDS011;7177;48.572;7.838;2022-08-21T09:13:24;9.03;;;3.10;;
14191;SDS011;7177;48.572;7.838;2022-08-21T09:19:32;6.63;;;3.60;;
14191;SDS011;7177;48.572;7.838;2022-08-21T09:24:53;6.47;;;2.80;;
14191;SDS011;7177;48.572;7.838;2022-08-21T09:27:35;6.20;;;3.07;;
14191;SDS011;7177;48.572;7.838;2022-08-21T09:30:03;6.53;;;2.90;;
14191;SDS011;7177;48.572;7.838;2022-08-21T09:32:31;8.73;;;3.40;;
14191;SDS011;7177;48.572;7.838;2022-08-21T09:37:34;9.03;;;3.90;;
14191;SDS011;7177;48.572;7.838;2022-08-21T09:40:27;6.77;;;2.73;;
14191;SDS011;7177;48.572;7.838;2022-08-21T09:43:05;7.50;;;3.37;;
14191;SDS011;7177;48.572;7.838;2022-08-21T09:45:42;11.13;;;3.50;;
14191;SDS011;7177;48.572;7.838;2022-08-21T09:48:12;6.73;;;2.90;;
14191;SDS011;7177;48.572;7.838;2022-08-21T09:50:46;5.57;;;2.70;;
14191;SDS011;7177;48.572;7.838;2022-08-21T09:53:20;5.90;;;2.80;;
14191;SDS011;7177;48.572;7.838;2022-08-21T09:55:53;9.60;;;3.00;;
14191;SDS011;7177;48.572;7.838;2022-08-21T09:58:40;6.00;;;2.90;;
14191;SDS011;7177;48.572;7.838;2022-08-21T10:01:12;5.50;;;2.73;;
14191;SDS011;7177;48.572;7.838;2022-08-21T10:03:39;5.63;;;3.03;;
14191;SDS011;7177;48.572;7.838;2022-08-21T10:06:06;7.00;;;3.00;;
14191;SDS011;7177;48.572;7.838;2022-08-21T10:08:36;7.50;;;3.93;;
14191;SDS011;7177;48.572;7.838;2022-08-21T10:11:14;5.13;;;2.87;;
14191;SDS011;7177;48.572;7.838;2022-08-21T10:16:42;5.47;;;3.10;;
14191;SDS011;7177;48.572;7.838;2022-08-21T10:22:08;8.10;;;3.37;;
14191;SDS011;7177;48.572;7.838;2022-08-21T10:24:42;10.17;;;3.10;;
14191;SDS011;7177;48.572;7.838;2022-08-21T10:30:14;8.00;;;3.23;;
14191;SDS011;7177;48.572;7.838;2022-08-21T10:33:07;5.83;;;2.77;;
14191;SDS011;7177;48.572;7.838;2022-08-21T10:36:03;6.73;;;3.10;;
14191;SDS011;7177;48.572;7.838;2022-08-21T10:43:57;5.30;;;2.70;;
14191;SDS011;7177;48.572;7.838;2022-08-21T10:46:47;9.03;;;2.37;;
14191;SDS011;7177;48.572;7.838;2022-08-21T10:49:27;4.60;;;2.03;;
14191;SDS011;7177;48.572;7.838;2022-08-21T10:55:16;4.03;;;2.10;;
14191;SDS011;7177;48.572;7.838;2022-08-21T10:57:51;4.37;;;1.80;;
14191;SDS011;7177;48.572;7.838;2022-08-21T11:00:23;2.20;;;1.70;;
14191;SDS011;7177;48.572;7.838;2022-08-21T11:06:04;5.93;;;2.43;;
14191;SDS011;7177;48.572;7.838;2022-08-21T11:08:41;4.07;;;2.00;;
14191;SDS011;7177;48.572;7.838;2022-08-21T11:13:44;5.63;;;3.23;;
14191;SDS011;7177;48.572;7.838;2022-08-21T11:16:24;3.40;;;2.50;;
14191;SDS011;7177;48.572;7.838;2022-08-21T11:21:43;8.00;;;3.30;;
14191;SDS011;7177;48.572;7.838;2022-08-21T11:24:22;5.20;;;2.40;;
14191;SDS011;7177;48.572;7.838;2022-08-21T11:27:06;7.87;;;2.53;;
14191;SDS011;7177;48.572;7.838;2022-08-21T11:29:52;5.23;;;2.13;;
14191;SDS011;7177;48.572;7.838;2022-08-21T11:35:10;4.40;;;2.23;;
14191;SDS011;7177;48.572;7.838;2022-08-21T11:40:39;3.40;;;2.30;;
14191;SDS011;7177;48.572;7.838;2022-08-21T11:46:10;4.83;;;2.50;;
14191;SDS011;7177;48.572;7.838;2022-08-21T11:51:46;8.77;;;2.20;;
14191;SDS011;7177;48.572;7.838;2022-08-21T11:54:40;4.93;;;2.40;;
14191;SDS011;7177;48.572;7.838;2022-08-21T11:57:17;6.73;;;2.47;;
14191;SDS011;7177;48.572;7.838;2022-08-21T11:59:56;3.70;;;2.20;;
14191;SDS011;7177;48.572;7.838;2022-08-21T12:02:28;5.63;;;2.70;;
14191;SDS011;7177;48.572;7.838;2022-08-21T12:04:59;5.57;;;2.27;;
14191;SDS011;7177;48.572;7.838;2022-08-21T12:07:33;4.97;;;2.37;;
14191;SDS011;7177;48.572;7.838;2022-08-21T12:10:10;4.20;;;2.23;;
14191;SDS011;7177;48.572;7.838;2022-08-21T12:12:39;4.93;;;2.03;;
14191;SDS011;7177;48.572;7.838;2022-08-21T12:15:12;3.77;;;2.03;;
14191;SDS011;7177;48.572;7.838;2022-08-21T12:17:39;4.60;;;2.20;;
14191;SDS011;7177;48.572;7.838;2022-08-21T12:20:17;4.60;;;2.10;;
14191;SDS011;7177;48.572;7.838;2022-08-21T12:22:49;4.30;;;2.10;;
14191;SDS011;7177;48.572;7.838;2022-08-21T12:25:19;2.90;;;1.83;;
14191;SDS011;7177;48.572;7.838;2022-08-21T12:27:47;3.63;;;1.80;;
14191;SDS011;7177;48.572;7.838;2022-08-21T12:32:57;2.50;;;1.83;;
14191;SDS011;7177;48.572;7.838;2022-08-21T12:35:27;4.67;;;2.00;;
14191;SDS011;7177;48.572;7.838;2022-08-21T12:38:07;5.23;;;1.93;;
14191;SDS011;7177;48.572;7.838;2022-08-21T12:40:39;3.73;;;1.80;;
14191;SDS011;7177;48.572;7.838;2022-08-21T12:43:11;2.50;;;1.80;;
14191;SDS011;7177;48.572;7.838;2022-08-21T12:45:42;4.00;;;1.80;;
14191;SDS011;7177;48.572;7.838;2022-08-21T12:48:11;5.60;;;1.90;;
14191;SDS011;7177;48.572;7.838;2022-08-21T12:50:52;3.87;;;2.10;;
14191;SDS011;7177;48.572;7.838;2022-08-21T12:53:32;2.23;;;1.70;;
14191;SDS011;7177;48.572;7.838;2022-08-21T12:56:17;4.10;;;1.80;;
14191;SDS011;7177;48.572;7.838;2022-08-21T12:59:07;4.97;;;1.97;;
14191;SDS011;7177;48.572;7.838;2022-08-21T13:01:39;2.67;;;1.77;;
14191;SDS011;7177;48.572;7.838;2022-08-21T13:04:14;2.90;;;1.80;;
14191;SDS011;7177;48.572;7.838;2022-08-21T13:06:45;3.50;;;1.60;;
14191;SDS011;7177;48.572;7.838;2022-08-21T13:09:15;3.57;;;1.80;;
14191;SDS011;7177;48.572;7.838;2022-08-21T13:11:43;3.40;;;1.70;;
14191;SDS011;7177;48.572;7.838;2022-08-21T13:14:17;2.20;;;1.57;;
14191;SDS011;7177;48.572;7.838;2022-08-21T13:17:04;3.13;;;1.60;;
14191;SDS011;7177;48.572;7.838;2022-08-21T13:19:32;2.67;;;1.43;;
14191;SDS011;7177;48.572;7.838;2022-08-21T13:21:59;1.47;;;1.20;;
14191;SDS011;7177;48.572;7.838;2022-08-21T13:24:29;1.37;;;1.20;;
14191;SDS011;7177;48.572;7.838;2022-08-21T13:27:00;2.40;;;1.60;;
14191;SDS011;7177;48.572;7.838;2022-08-21T13:29:30;2.80;;;1.67;;
14191;SDS011;7177;48.572;7.838;2022-08-21T13:31:58;3.77;;;2.20;;
14191;SDS011;7177;48.572;7.838;2022-08-21T13:34:30;2.03;;;1.30;;
14191;SDS011;7177;48.572;7.838;2022-08-21T13:36:59;1.20;;;1.07;;
14191;SDS011;7177;48.572;7.838;2022-08-21T13:39:28;2.03;;;1.40;;
14191;SDS011;7177;48.572;7.838;2022-08-21T13:41:55;2.47;;;1.43;;
14191;SDS011;7177;48.572;7.838;2022-08-21T13:44:24;3.07;;;1.60;;
14191;SDS011;7177;48.572;7.838;2022-08-21T13:47:01;2.50;;;1.40;;
14191;SDS011;7177;48.572;7.838;2022-08-21T13:49:30;3.03;;;1.80;;
14191;SDS011;7177;48.572;7.838;2022-08-21T13:52:15;3.60;;;1.57;;
14191;SDS011;7177;48.572;7.838;2022-08-21T13:54:44;2.63;;;1.50;;
14191;SDS011;7177;48.572;7.838;2022-08-21T14:00:43;1.73;;;1.33;;
14191;SDS011;7177;48.572;7.838;2022-08-21T14:02:50;3.27;;;1.33;;
14191;SDS011;7177;48.572;7.838;2022-08-21T14:07:50;2.93;;;1.57;;
14191;SDS011;7177;48.572;7.838;2022-08-21T14:10:22;2.13;;;1.23;;
14191;SDS011;7177;48.572;7.838;2022-08-21T14:12:52;1.63;;;1.10;;
14191;SDS011;7177;48.572;7.838;2022-08-21T14:15:24;4.30;;;1.60;;
14191;SDS011;7177;48.572;7.838;2022-08-21T14:17:53;3.17;;;1.33;;
14191;SDS011;7177;48.572;7.838;2022-08-21T14:20:57;2.33;;;1.20;;
14191;SDS011;7177;48.572;7.838;2022-08-21T14:23:11;2.00;;;1.30;;
14191;SDS011;7177;48.572;7.838;2022-08-21T14:25:42;1.40;;;1.20;;
14191;SDS011;7177;48.572;7.838;2022-08-21T14:28:20;2.00;;;1.00;;
14191;SDS011;7177;48.572;7.838;2022-08-21T14:30:53;2.90;;;1.30;;
14191;SDS011;7177;48.572;7.838;2022-08-21T14:33:27;3.87;;;1.40;;
14191;SDS011;7177;48.572;7.838;2022-08-21T14:35:56;2.17;;;1.00;;
14191;SDS011;7177;48.572;7.838;2022-08-21T14:38:22;3.20;;;1.40;;
14191;SDS011;7177;48.572;7.838;2022-08-21T14:40:50;2.90;;;1.40;;
14191;SDS011;7177;48.572;7.838;2022-08-21T14:43:24;1.67;;;1.40;;
14191;SDS011;7177;48.572;7.838;2022-08-21T14:45:51;2.20;;;1.30;;
14191;SDS011;7177;48.572;7.838;2022-08-21T14:48:16;1.83;;;1.40;;
14191;SDS011;7177;48.572;7.838;2022-08-21T14:50:42;3.07;;;1.60;;
14191;SDS011;7177;48.572;7.838;2022-08-21T14:53:08;2.00;;;1.80;;
14191;SDS011;7177;48.572;7.838;2022-08-21T14:55:34;3.87;;;1.67;;
14191;SDS011;7177;48.572;7.838;2022-08-21T14:58:18;2.20;;;1.77;;
14191;SDS011;7177;48.572;7.838;2022-08-21T15:00:44;6.40;;;1.70;;
14191;SDS011;7177;48.572;7.838;2022-08-21T15:03:10;2.73;;;1.80;;
14191;SDS011;7177;48.572;7.838;2022-08-21T15:05:35;3.27;;;1.63;;
14191;SDS011;7177;48.572;7.838;2022-08-21T15:08:01;2.00;;;1.50;;
14191;SDS011;7177;48.572;7.838;2022-08-21T15:10:27;2.47;;;1.63;;
14191;SDS011;7177;48.572;7.838;2022-08-21T15:12:57;3.63;;;1.50;;
14191;SDS011;7177;48.572;7.838;2022-08-21T15:15:23;3.90;;;1.40;;
14191;SDS011;7177;48.572;7.838;2022-08-21T15:17:48;2.67;;;1.30;;
14191;SDS011;7177;48.572;7.838;2022-08-21T15:20:14;1.93;;;1.30;;
14191;SDS011;7177;48.572;7.838;2022-08-21T15:22:39;4.57;;;1.70;;
14191;SDS011;7177;48.572;7.838;2022-08-21T15:25:05;4.43;;;1.90;;
14191;SDS011;7177;48.572;7.838;2022-08-21T15:27:31;2.87;;;1.70;;
14191;SDS011;7177;48.572;7.838;2022-08-21T15:29:56;4.70;;;2.07;;
14191;SDS011;7177;48.572;7.838;2022-08-21T15:32:24;3.40;;;1.70;;
14191;SDS011;7177;48.572;7.838;2022-08-21T15:34:52;2.73;;;1.60;;
14191;SDS011;7177;48.572;7.838;2022-08-21T15:37:19;3.47;;;1.90;;
14191;SDS011;7177;48.572;7.838;2022-08-21T15:39:45;4.20;;;1.90;;
14191;SDS011;7177;48.572;7.838;2022-08-21T15:42:11;2.20;;;1.67;;
14191;SDS011;7177;48.572;7.838;2022-08-21T15:44:39;4.30;;;1.93;;
14191;SDS011;7177;48.572;7.838;2022-08-21T15:47:05;5.50;;;1.83;;
14191;SDS011;7177;48.572;7.838;2022-08-21T15:49:34;5.87;;;1.97;;
14191;SDS011;7177;48.572;7.838;2022-08-21T15:52:00;2.63;;;1.70;;
14191;SDS011;7177;48.572;7.838;2022-08-21T15:54:25;2.70;;;1.70;;
14191;SDS011;7177;48.572;7.838;2022-08-21T15:56:51;2.50;;;1.60;;
14191;SDS011;7177;48.572;7.838;2022-08-21T15:59:18;3.93;;;1.80;;
14191;SDS011;7177;48.572;7.838;2022-08-21T16:01:46;6.70;;;3.63;;
14191;SDS011;7177;48.572;7.838;2022-08-21T16:04:15;4.80;;;2.00;;
14191;SDS011;7177;48.572;7.838;2022-08-21T16:06:46;4.57;;;2.07;;
14191;SDS011;7177;48.572;7.838;2022-08-21T16:09:13;5.40;;;2.10;;
14191;SDS011;7177;48.572;7.838;2022-08-21T16:11:40;4.43;;;2.07;;